Vineburg, California
Current Conditions -  °F | °C
As of 10:30 AM on Thursday 30 Oct 2014 (Local Time) from KO69 Reporting Station
Clear Clear  
Wind Chill: 66°   Ceiling: Unl
Heat Index: 66°   Visibility: 10mi
Dew Point: 54°   Wind: 10mph
Humidity: 64%   Direction: 160°SSE
Pressure: 29.95"   Gusts: NA
Location:  38.27°N, 122.44°W
Report Text: KO69 301730Z AUTO 16009KT 10SM CLR 19/12 A2995 RMK AO1
Loading
Personal Weather Stations






























Interactive Weather Map
Tropical Storm Tracking
New forecast layout! Learn more

10-Day Weather Forecast

Advertisements
Track Severe Weather on mobile